TimeCST,TemperatureF,Dew PointF,Humidity,Sea Level PressureIn,VisibilityMPH,Wind Direction,Wind SpeedMPH,Gust SpeedMPH,PrecipitationIn,Events,Conditions,WindDirDegrees,DateUTC
12:11 AM,32.0,24.8,75,29.90,10.0,NE,6.9,-,N/A,,Overcast,40,2000-01-03 06:11:00
12:31 AM,32.0,26.6,80,29.87,10.0,NNE,8.1,-,N/A,,Overcast,30,2000-01-03 06:31:00
12:48 AM,30.2,26.6,86,29.86,10.0,NNE,10.4,-,N/A,,Overcast,30,2000-01-03 06:48:00
1:10 AM,30.2,26.6,86,29.85,10.0,NNE,11.5,-,N/A,,Mostly Cloudy,20,2000-01-03 07:10:00
1:30 AM,30.2,26.6,86,29.84,10.0,NNE,10.4,-,N/A,,Mostly Cloudy,30,2000-01-03 07:30:00
1:48 AM,30.2,26.6,86,29.83,10.0,NNE,11.5,-,N/A,,Mostly Cloudy,20,2000-01-03 07:48:00
2:09 AM,30.2,26.6,86,29.84,7.0,NNE,9.2,-,N/A,,Overcast,30,2000-01-03 08:09:00
2:31 AM,30.2,26.6,86,29.86,7.0,NE,5.8,-,N/A,,Overcast,40,2000-01-03 08:31:00
2:53 AM,30.2,26.6,86,29.85,5.0,ENE,8.1,-,N/A,,Overcast,60,2000-01-03 08:53:00
3:11 AM,30.2,26.6,86,29.82,5.0,NNE,5.8,-,N/A,,Overcast,20,2000-01-03 09:11:00
3:28 AM,30.2,26.6,86,29.81,5.0,NNE,6.9,-,N/A,,Overcast,30,2000-01-03 09:28:00
3:50 AM,30.2,26.6,86,29.83,3.5,NE,8.1,-,N/A,,Overcast,50,2000-01-03 09:50:00
4:08 AM,30.2,26.6,86,29.85,3.0,ENE,8.1,-,N/A,,Overcast,70,2000-01-03 10:08:00
4:49 AM,30.2,28.4,93,29.82,2.0,NE,8.1,-,N/A,,Overcast,50,2000-01-03 10:49:00
5:08 AM,30.2,28.4,93,29.82,2.0,NE,6.9,-,N/A,,Overcast,50,2000-01-03 11:08:00
5:53 AM,30.2,28.4,93,29.82,4.0,NE,6.9,-,N/A,,Overcast,50,2000-01-03 11:53:00
6:08 AM,30.2,28.4,93,29.82,4.0,NE,9.2,-,N/A,,Overcast,50,2000-01-03 12:08:00
6:50 AM,30.2,28.4,93,29.80,1.2,NNE,12.7,17.3,N/A,,Overcast,30,2000-01-03 12:50:00
7:08 AM,30.2,26.6,86,29.81,0.8,NE,11.5,-,N/A,,Overcast,40,2000-01-03 13:08:00
7:28 AM,30.2,26.6,86,29.82,1.2,NE,10.4,-,N/A,,Overcast,40,2000-01-03 13:28:00
7:50 AM,30.2,28.4,93,29.83,1.0,NNE,11.5,16.1,N/A,,Overcast,30,2000-01-03 13:50:00
8:29 AM,30.2,28.4,93,29.86,0.8,NNE,9.2,-,N/A,,Overcast,20,2000-01-03 14:29:00
9:10 AM,30.2,28.4,93,29.88,1.2,North,11.5,-,N/A,,Overcast,360,2000-01-03 15:10:00
9:31 AM,30.2,28.4,93,29.88,1.8,North,11.5,-,N/A,,Overcast,10,2000-01-03 15:31:00
9:49 AM,30.2,28.4,93,29.88,2.5,North,11.5,-,N/A,,Overcast,360,2000-01-03 15:49:00
10:10 AM,30.2,28.4,93,29.88,3.5,North,13.8,-,N/A,,Overcast,360,2000-01-03 16:10:00
10:49 AM,30.2,28.4,93,29.89,3.0,North,11.5,-,N/A,,Overcast,350,2000-01-03 16:49:00
11:12 AM,30.2,28.4,93,29.89,2.5,North,13.8,-,N/A,,Overcast,360,2000-01-03 17:12:00
11:29 AM,30.2,28.4,93,29.88,7.0,North,12.7,-,N/A,,Overcast,360,2000-01-03 17:29:00
11:49 AM,30.2,26.6,86,29.88,7.0,North,11.5,-,N/A,,Overcast,360,2000-01-03 17:49:00
12:09 PM,30.2,28.4,93,29.87,7.0,North,16.1,20.7,N/A,,Overcast,350,2000-01-03 18:09:00
12:29 PM,32.0,28.4,87,29.88,7.0,North,18.4,24.2,N/A,,Overcast,360,2000-01-03 18:29:00
1:15 PM,32.0,28.4,87,29.88,10.0,North,19.6,24.2,N/A,,Overcast,360,2000-01-03 19:15:00
2:10 PM,30.2,26.6,86,29.88,10.0,North,20.7,28.8,N/A,,Overcast,350,2000-01-03 20:10:00
2:29 PM,30.2,26.6,86,29.89,10.0,North,24.2,31.1,N/A,,Overcast,350,2000-01-03 20:29:00
2:49 PM,30.2,26.6,86,29.89,10.0,North,24.2,33.4,N/A,,Overcast,350,2000-01-03 20:49:00
3:11 PM,30.2,26.6,86,29.91,10.0,North,21.9,31.1,N/A,,Overcast,350,2000-01-03 21:11:00
3:29 PM,30.2,26.6,86,29.92,10.0,North,24.2,29.9,N/A,,Overcast,350,2000-01-03 21:29:00
3:49 PM,30.2,24.8,80,29.93,10.0,North,27.6,34.5,N/A,,Overcast,350,2000-01-03 21:49:00
4:11 PM,30.2,24.8,80,29.95,10.0,North,24.2,29.9,N/A,,Overcast,350,2000-01-03 22:11:00
4:34 PM,30.2,24.8,80,29.96,10.0,North,20.7,32.2,N/A,,Overcast,350,2000-01-03 22:34:00
4:49 PM,30.2,24.8,80,29.97,10.0,NNW,26.5,34.5,N/A,,Overcast,340,2000-01-03 22:49:00
5:09 PM,28.4,23.0,80,29.99,10.0,North,21.9,36.8,N/A,,Overcast,350,2000-01-03 23:09:00
5:32 PM,28.4,23.0,80,30.00,10.0,North,21.9,28.8,N/A,,Overcast,350,2000-01-03 23:32:00
6:12 PM,28.4,24.8,86,30.04,10.0,North,21.9,26.5,N/A,,Overcast,350,2000-01-04 00:12:00
6:29 PM,28.4,24.8,86,30.05,10.0,North,24.2,31.1,N/A,,Overcast,350,2000-01-04 00:29:00
6:51 PM,28.4,24.8,86,30.06,7.0,NNW,19.6,26.5,N/A,,Overcast,340,2000-01-04 00:51:00
7:09 PM,28.4,24.8,86,30.07,7.0,NNW,29.9,40.3,N/A,,Overcast,330,2000-01-04 01:09:00
7:31 PM,26.6,21.2,80,30.08,10.0,NNW,27.6,38.0,N/A,,Overcast,330,2000-01-04 01:31:00
8:29 PM,24.8,19.4,80,30.12,10.0,NW,24.2,31.1,N/A,,Overcast,320,2000-01-04 02:29:00
8:51 PM,24.8,17.6,74,30.12,10.0,NNW,20.7,29.9,N/A,,Overcast,330,2000-01-04 02:51:00
9:09 PM,24.8,17.6,74,30.13,10.0,NNW,26.5,31.1,N/A,,Overcast,330,2000-01-04 03:09:00
9:30 PM,24.8,17.6,74,30.14,10.0,NW,23.0,31.1,N/A,,Overcast,320,2000-01-04 03:30:00
9:49 PM,23.0,15.8,74,30.15,10.0,NW,24.2,34.5,N/A,,Overcast,320,2000-01-04 03:49:00
10:29 PM,21.2,14.0,74,30.16,10.0,NNW,25.3,32.2,N/A,,Overcast,330,2000-01-04 04:29:00
10:51 PM,19.4,10.4,68,30.18,10.0,NW,21.9,28.8,N/A,,Overcast,310,2000-01-04 04:51:00
11:09 PM,19.4,10.4,68,30.18,10.0,NW,19.6,29.9,N/A,,Overcast,320,2000-01-04 05:09:00
11:30 PM,17.6,10.4,73,30.19,10.0,NW,26.5,32.2,N/A,,Overcast,320,2000-01-04 05:30:00
11:55 PM,17.6,8.6,68,30.20,10.0,NW,25.3,34.5,N/A,,Overcast,320,2000-01-04 05:55:00